Navin Kestrel — V7ZR5 — position and weather

sailwx.info

Track history (hours):
 
Tides and Currents Weather Stations Pressure Air Temp Water Temp Dewpoint Dewpoint Depression Visibility Wind Speed Wind Dir Waves Ship Positions

Navin Kestrel

Last reported at 2017-Oct-14 10:49 UTC. Time now 2017-Oct-17 01:03 UTC.
Position N 37°44' E 016°10'.

Length 116 m; draft 4.3 m.

Type: Cargo ship. MMSI: 538004897.

Date/timePositionNaut miles runAvg speedWind from/ knotsBaromVisibWave heightAir tempDewpointWater temp
2017-Oct-14 10:49N 37°44' E 016°10'5 9.2
2017-Oct-14 10:15N 37°46' E 016°04'2 9.6
2017-Oct-14 10:00N 37°47' E 016°01'5 9.4
2017-Oct-14 09:30N 37°49' E 015°56'6 9.3
2017-Oct-14 08:54N 37°52' E 015°50'4 9.1
2017-Oct-14 08:30N 37°53' E 015°46'4 8.8
2017-Oct-14 08:00N 37°56' E 015°41'4 8.3
2017-Oct-14 07:30N 37°59' E 015°38'4 8.0
2017-Oct-14 07:00N 38°03' E 015°36'4 8.4
2017-Oct-14 06:30N 38°07' E 015°35'611.1
2017-Oct-14 06:01N 38°12' E 015°36'510.3
2017-Oct-14 05:31N 38°16' E 015°40'5 9.7
2017-Oct-14 05:00N 38°20' E 015°37'510.0
2017-Oct-14 04:30N 38°24' E 015°33'5 9.9
2017-Oct-14 04:00N 38°28' E 015°28'5 9.8
2017-Oct-14 03:30N 38°31' E 015°24'5 9.7
2017-Oct-14 03:00N 38°35' E 015°20'5 9.7
2017-Oct-14 02:26N 38°39' E 015°16'5 9.5
2017-Oct-14 01:54N 38°43' E 015°12'6 9.4
2017-Oct-14 01:15N 38°48' E 015°06'9 9.5
2017-Oct-14 00:20N 38°54' E 014°59'  
2017-Oct-11 00:00N 42°49' E 009°49'510.2
2017-Oct-10 23:30N 42°51' E 009°43'5 9.8
2017-Oct-10 22:59N 42°55' E 009°38'610.5
2017-Oct-10 22:23N 43°01' E 009°35'410.1
2017-Oct-10 22:00N 43°04' E 009°32'5 9.9
2017-Oct-10 21:30N 43°07' E 009°27'5 9.8
2017-Oct-10 21:00N 43°05' E 009°22'5 9.9
2017-Oct-10 20:29N 43°03' E 009°15'510.7
2017-Oct-10 20:00N 43°03' E 009°08'510.8
2017-Oct-10 19:30N 43°03' E 009°01'610.9
2017-Oct-10 18:55N 43°02' E 008°52'511.0
2017-Oct-10 18:28N 43°02' E 008°45'510.7
2017-Oct-10 18:00N 43°02' E 008°38'46 9.9
2017-Oct-10 13:24N 42°59' E 007°36'93 9.5
2017-Oct-10 03:30N 42°57' E 005°28'6 9.8
2017-Oct-10 02:57N 42°57' E 005°20'410.0
2017-Oct-10 02:30N 42°57' E 005°15'5 9.9
2017-Oct-10 02:00N 42°58' E 005°08'5 9.9
2017-Oct-10 01:31N 42°58' E 005°01'5 9.8
2017-Oct-10 01:00N 42°58' E 004°54'5 9.9
2017-Oct-10 00:31N 42°59' E 004°48'5 9.8
2017-Oct-10 00:01N 42°59' E 004°41'5 9.9
2017-Oct-09 23:31N 42°59' E 004°34'510.1
2017-Oct-09 23:01N 42°59' E 004°27'510.1
2017-Oct-09 22:30N 42°60' E 004°20'510.4
2017-Oct-09 22:00N 43°00' E 004°13'1210.4
2017-Oct-09 20:50N 43°02' E 003°57'  
2017-Oct-05 08:01N 43°01' E 003°03'0 0.0
2017-Oct-05 07:58N 43°01' E 003°03'0 0.0
2017-Oct-05 07:28N 43°01' E 003°03'0 0.0
2017-Oct-05 06:49N 43°01' E 003°03'0 0.0
2017-Oct-05 06:28N 43°01' E 003°03'0 0.0
2017-Oct-05 05:58N 43°01' E 003°03'  
Track history (hours):
 
Tides and Currents Weather Stations Pressure Air Temp Water Temp Dewpoint Dewpoint Depression Visibility Wind Speed Wind Dir Waves Ship Positions

Navin Kestrel

Last reported at 2017-Oct-14 10:49 UTC. Time now 2017-Oct-17 01:03 UTC.
Position N 37°44' E 016°10'.

Length 116 m; draft 4.3 m.

Type: Cargo ship. MMSI: 538004897.

Date/timePositionNaut miles runAvg speedWind from/ knotsBaromVisibWave heightAir tempDewpointWater temp
2017-Oct-14 10:49N 37°44' E 016°10'5 9.2
2017-Oct-14 10:15N 37°46' E 016°04'2 9.6
2017-Oct-14 10:00N 37°47' E 016°01'5 9.4
2017-Oct-14 09:30N 37°49' E 015°56'6 9.3
2017-Oct-14 08:54N 37°52' E 015°50'4 9.1
2017-Oct-14 08:30N 37°53' E 015°46'4 8.8
2017-Oct-14 08:00N 37°56' E 015°41'4 8.3
2017-Oct-14 07:30N 37°59' E 015°38'4 8.0
2017-Oct-14 07:00N 38°03' E 015°36'4 8.4
2017-Oct-14 06:30N 38°07' E 015°35'611.1
2017-Oct-14 06:01N 38°12' E 015°36'510.3
2017-Oct-14 05:31N 38°16' E 015°40'5 9.7
2017-Oct-14 05:00N 38°20' E 015°37'510.0
2017-Oct-14 04:30N 38°24' E 015°33'5 9.9
2017-Oct-14 04:00N 38°28' E 015°28'5 9.8
2017-Oct-14 03:30N 38°31' E 015°24'5 9.7
2017-Oct-14 03:00N 38°35' E 015°20'5 9.7
2017-Oct-14 02:26N 38°39' E 015°16'5 9.5
2017-Oct-14 01:54N 38°43' E 015°12'6 9.4
2017-Oct-14 01:15N 38°48' E 015°06'9 9.5
2017-Oct-14 00:20N 38°54' E 014°59'  
2017-Oct-11 00:00N 42°49' E 009°49'510.2
2017-Oct-10 23:30N 42°51' E 009°43'5 9.8
2017-Oct-10 22:59N 42°55' E 009°38'610.5
2017-Oct-10 22:23N 43°01' E 009°35'410.1
2017-Oct-10 22:00N 43°04' E 009°32'5 9.9
2017-Oct-10 21:30N 43°07' E 009°27'5 9.8
2017-Oct-10 21:00N 43°05' E 009°22'5 9.9
2017-Oct-10 20:29N 43°03' E 009°15'510.7
2017-Oct-10 20:00N 43°03' E 009°08'510.8
2017-Oct-10 19:30N 43°03' E 009°01'610.9
2017-Oct-10 18:55N 43°02' E 008°52'511.0
2017-Oct-10 18:28N 43°02' E 008°45'510.7
2017-Oct-10 18:00N 43°02' E 008°38'46 9.9
2017-Oct-10 13:24N 42°59' E 007°36'93 9.5
2017-Oct-10 03:30N 42°57' E 005°28'6 9.8
2017-Oct-10 02:57N 42°57' E 005°20'410.0
2017-Oct-10 02:30N 42°57' E 005°15'5 9.9
2017-Oct-10 02:00N 42°58' E 005°08'5 9.9
2017-Oct-10 01:31N 42°58' E 005°01'5 9.8
2017-Oct-10 01:00N 42°58' E 004°54'5 9.9
2017-Oct-10 00:31N 42°59' E 004°48'5 9.8
2017-Oct-10 00:01N 42°59' E 004°41'5 9.9
2017-Oct-09 23:31N 42°59' E 004°34'510.1
2017-Oct-09 23:01N 42°59' E 004°27'510.1
2017-Oct-09 22:30N 42°60' E 004°20'510.4
2017-Oct-09 22:00N 43°00' E 004°13'1210.4
2017-Oct-09 20:50N 43°02' E 003°57'  
2017-Oct-05 08:01N 43°01' E 003°03'0 0.0
2017-Oct-05 07:58N 43°01' E 003°03'0 0.0
2017-Oct-05 07:28N 43°01' E 003°03'0 0.0
2017-Oct-05 06:49N 43°01' E 003°03'0 0.0
2017-Oct-05 06:28N 43°01' E 003°03'0 0.0
2017-Oct-05 05:58N 43°01' E 003°03'  

Dump ship's entire track history